Saint Marys, Georgia
Current Conditions -  °F | °C
As of 9:15 AM on Friday 24 Oct 2014 (Local Time) from KFHB Reporting Station
Clear Clear  
Wind Chill: 64°   Ceiling: Unl
Heat Index: 64°   Visibility: 10mi
Dew Point: 55°   Wind: 6mph
Humidity: 73%   Direction: 320°NW
Pressure: 30.03"   Gusts: NA
Location:  30.73°N, 81.55°W
Report Text: KFHB 241315Z AUTO 32005KT 10SM CLR 18/13 A3003 RMK AO1
Loading
Personal Weather Stations






























Interactive Weather Map
Tropical Storm Tracking
New forecast layout! Learn more

10-Day Weather Forecast

Advertisements
Track Severe Weather on mobile